createdAt,value
2023-12-09T00:00:27.185Z,34.17
2023-12-09T00:01:33.778Z,36.63
2023-12-09T00:02:42.458Z,36.35
2023-12-09T00:03:50.743Z,32.55
2023-12-09T00:04:56.924Z,36.97
2023-12-09T00:06:03.584Z,33.05
2023-12-09T00:07:09.810Z,31.92
2023-12-09T00:08:16.444Z,34.05
2023-12-09T00:09:20.486Z,33.53
2023-12-09T00:10:29.268Z,29.83
2023-12-09T00:11:36.129Z,35.42
2023-12-09T00:12:43.860Z,35.70
2023-12-09T00:13:47.715Z,38.10
2023-12-09T00:14:51.604Z,34.88
2023-12-09T00:16:04.001Z,33.60
2023-12-09T00:17:08.953Z,33.47
2023-12-09T00:18:19.159Z,32.33
2023-12-09T00:19:25.905Z,31.83
2023-12-09T00:20:32.789Z,30.13
2023-12-09T00:21:38.641Z,32.38
2023-12-09T00:22:45.932Z,34.00
2023-12-09T00:23:54.614Z,33.95
2023-12-09T00:25:01.190Z,45.55
2023-12-09T00:26:05.779Z,44.10
2023-12-09T00:27:16.213Z,37.05
2023-12-09T00:28:20.153Z,32.45
2023-12-09T00:29:38.829Z,33.97
2023-12-09T00:30:43.912Z,32.05
2023-12-09T00:31:52.133Z,31.23
2023-12-09T00:32:59.444Z,29.45
2023-12-09T00:34:13.688Z,36.58
2023-12-09T00:35:18.993Z,32.70
2023-12-09T00:36:25.669Z,32.20
2023-12-09T00:37:30.871Z,32.83
2023-12-09T00:38:41.278Z,38.85
2023-12-09T00:39:56.067Z,33.38
2023-12-09T00:41:07.138Z,35.03
2023-12-09T00:42:12.651Z,35.40
2023-12-09T00:43:24.073Z,32.80
2023-12-09T00:44:31.631Z,35.15
2023-12-09T00:45:43.353Z,32.30
2023-12-09T00:46:50.471Z,36.75
2023-12-09T00:47:57.423Z,29.55
2023-12-09T00:49:04.000Z,36.05
2023-12-09T00:50:22.462Z,36.85
2023-12-09T00:51:28.488Z,33.97
2023-12-09T00:52:39.065Z,34.40
2023-12-09T00:53:43.745Z,31.75
2023-12-09T00:54:50.251Z,30.80
2023-12-09T00:55:54.207Z,30.75
2023-12-09T00:57:04.048Z,33.08
2023-12-09T00:58:10.573Z,32.55
2023-12-09T00:59:20.277Z,34.75
2023-12-09T01:00:26.988Z,36.60
2023-12-09T01:01:35.151Z,31.27
2023-12-09T01:02:40.288Z,31.05
2023-12-09T01:03:56.246Z,36.38
2023-12-09T01:05:02.576Z,35.22
2023-12-09T01:06:15.785Z,29.88
2023-12-09T01:07:22.406Z,32.83
2023-12-09T01:08:32.757Z,31.52
2023-12-09T01:09:39.552Z,36.50
2023-12-09T01:10:46.440Z,32.72
2023-12-09T01:11:57.349Z,34.72
2023-12-09T01:13:04.021Z,31.35
2023-12-09T01:14:10.515Z,34.15
2023-12-09T01:15:27.403Z,34.47
2023-12-09T01:16:34.227Z,29.00
2023-12-09T01:17:40.104Z,27.42
2023-12-09T01:18:44.042Z,37.58
2023-12-09T01:19:50.626Z,33.97
2023-12-09T01:20:56.422Z,31.10
2023-12-09T01:22:05.660Z,28.83
2023-12-09T01:23:09.595Z,38.83
2023-12-09T01:24:16.302Z,33.83
2023-12-09T01:25:20.325Z,33.22
2023-12-09T01:26:26.765Z,32.78
2023-12-09T01:27:33.731Z,32.20
2023-12-09T01:28:40.267Z,32.28
2023-12-09T01:29:44.744Z,30.80
2023-12-09T01:30:54.005Z,29.08
2023-12-09T01:32:00.256Z,32.47
2023-12-09T01:33:07.024Z,33.55
2023-12-09T01:34:11.118Z,35.90
2023-12-09T01:35:21.323Z,31.15
2023-12-09T01:36:25.415Z,28.88
2023-12-09T01:37:34.769Z,27.00
2023-12-09T01:38:38.662Z,29.00
2023-12-09T01:39:46.536Z,26.73
2023-12-09T01:40:54.883Z,31.02
2023-12-09T01:42:04.378Z,32.17
2023-12-09T01:43:10.612Z,36.10
2023-12-09T01:44:17.223Z,29.42
2023-12-09T01:45:21.815Z,29.30
2023-12-09T01:46:31.185Z,28.27
2023-12-09T01:47:39.711Z,26.92
2023-12-09T01:48:46.596Z,32.78
2023-12-09T01:49:51.279Z,29.83
2023-12-09T01:50:57.913Z,31.48
2023-12-09T01:52:03.709Z,27.67
2023-12-09T01:53:15.431Z,31.13
2023-12-09T01:54:19.495Z,26.95
2023-12-09T01:55:28.234Z,29.92
2023-12-09T01:56:32.480Z,32.13
2023-12-09T01:57:42.027Z,31.45
2023-12-09T01:58:45.959Z,28.38
2023-12-09T01:59:52.578Z,31.45
2023-12-09T02:00:57.153Z,31.83
2023-12-09T02:02:05.289Z,31.05
2023-12-09T02:03:09.353Z,34.60
2023-12-09T02:04:17.541Z,31.33
2023-12-09T02:05:24.629Z,26.73
2023-12-09T02:06:34.506Z,31.05
2023-12-09T02:07:38.382Z,30.13
2023-12-09T02:08:47.546Z,28.13
2023-12-09T02:09:51.826Z,29.90
2023-12-09T02:11:12.848Z,35.10
2023-12-09T02:12:33.151Z,33.40
2023-12-09T02:13:53.473Z,32.78
2023-12-09T02:15:06.701Z,33.42
2023-12-09T02:16:25.374Z,32.20
2023-12-09T02:17:40.016Z,31.90
2023-12-09T02:18:49.355Z,30.77
2023-12-09T02:19:54.819Z,28.95
2023-12-09T02:22:09.784Z,32.17
2023-12-09T02:23:18.938Z,32.47
2023-12-09T02:24:25.942Z,30.05
2023-12-09T02:25:34.844Z,32.58
2023-12-09T02:26:41.292Z,35.10
2023-12-09T02:27:58.388Z,32.45
2023-12-09T02:29:09.438Z,29.70
2023-12-09T02:30:30.625Z,30.85
2023-12-09T02:32:47.840Z,30.67
2023-12-09T02:33:52.680Z,35.55
2023-12-09T02:35:01.291Z,29.35
2023-12-09T02:36:11.759Z,33.13
2023-12-09T02:37:23.686Z,30.20
2023-12-09T02:38:38.892Z,32.85
2023-12-09T02:39:50.094Z,34.65
2023-12-09T02:40:54.404Z,32.42
2023-12-09T02:42:03.952Z,30.35
2023-12-09T02:43:08.403Z,32.45
2023-12-09T02:44:18.035Z,32.22
2023-12-09T02:45:22.266Z,28.35
2023-12-09T02:46:31.419Z,29.27
2023-12-09T02:47:38.086Z,32.67
2023-12-09T02:48:44.589Z,29.73
2023-12-09T02:49:53.530Z,30.13
2023-12-09T02:50:57.169Z,25.77
2023-12-09T02:52:02.873Z,32.20
2023-12-09T02:53:06.498Z,31.60
2023-12-09T02:54:15.632Z,34.47
2023-12-09T02:55:22.829Z,29.77
2023-12-09T02:56:29.307Z,26.63
2023-12-09T02:57:33.250Z,29.08
2023-12-09T02:58:39.773Z,36.63
2023-12-09T02:59:43.733Z,32.05
2023-12-09T03:00:52.826Z,26.02
2023-12-09T03:01:59.086Z,29.70
2023-12-09T03:03:05.684Z,26.63
2023-12-09T03:04:09.812Z,35.63
2023-12-09T03:05:18.781Z,34.58
2023-12-09T03:06:22.722Z,32.83
2023-12-09T03:07:31.559Z,29.02
2023-12-09T03:08:38.641Z,32.17
2023-12-09T03:09:50.745Z,30.42
2023-12-09T03:10:57.661Z,30.15
2023-12-09T03:12:04.640Z,32.30
2023-12-09T03:13:08.539Z,28.23
2023-12-09T03:14:17.532Z,32.28
2023-12-09T03:15:24.133Z,30.80
2023-12-09T03:16:32.557Z,34.45
2023-12-09T03:17:39.667Z,34.78
2023-12-09T03:18:46.274Z,45.70
2023-12-09T03:19:54.796Z,29.10
2023-12-09T03:21:01.425Z,32.13
2023-12-09T03:22:05.692Z,35.88
2023-12-09T03:23:12.120Z,32.55
2023-12-09T03:24:20.856Z,31.42
2023-12-09T03:25:26.654Z,27.83
2023-12-09T03:26:33.162Z,28.55
2023-12-09T03:27:39.646Z,29.92
2023-12-09T03:28:48.441Z,28.77
2023-12-09T03:29:54.483Z,36.13
2023-12-09T03:31:06.909Z,36.45
2023-12-09T03:32:10.820Z,32.30
2023-12-09T03:33:14.789Z,33.30
2023-12-09T03:34:21.385Z,37.03
2023-12-09T03:35:25.344Z,35.80
2023-12-09T03:36:30.989Z,42.30
2023-12-09T03:37:34.907Z,37.03
2023-12-09T03:38:41.455Z,39.35
2023-12-09T03:39:45.311Z,32.25
2023-12-09T03:40:56.933Z,26.45
2023-12-09T03:42:00.844Z,32.42
2023-12-09T03:43:12.057Z,29.90
2023-12-09T03:44:15.988Z,35.65
2023-12-09T03:45:19.924Z,40.92
2023-12-09T03:46:28.596Z,33.00
2023-12-09T03:47:32.536Z,37.75
2023-12-09T03:48:39.281Z,39.40
2023-12-09T03:49:45.807Z,37.00
2023-12-09T03:50:51.899Z,35.97
2023-12-09T03:52:00.104Z,41.13
2023-12-09T03:53:04.016Z,37.85
2023-12-09T03:54:10.598Z,38.03
2023-12-09T03:55:17.114Z,31.98
2023-12-09T03:56:29.265Z,33.58
2023-12-09T03:57:38.519Z,39.30
2023-12-09T03:58:45.081Z,39.00
2023-12-09T03:59:51.218Z,39.58
2023-12-09T04:00:57.775Z,36.03
2023-12-09T04:02:01.693Z,33.75
2023-12-09T04:03:17.247Z,37.33
2023-12-09T04:04:21.165Z,37.45
2023-12-09T04:05:27.820Z,40.67
2023-12-09T04:06:33.756Z,38.60
2023-12-09T04:07:42.430Z,32.13
2023-12-09T04:08:48.340Z,44.17
2023-12-09T04:09:57.845Z,37.55
2023-12-09T04:11:06.361Z,49.67
2023-12-09T04:12:17.719Z,36.30
2023-12-09T04:13:23.440Z,42.90
2023-12-09T04:14:30.308Z,44.17
2023-12-09T04:15:34.329Z,45.58
2023-12-09T04:16:40.916Z,44.63
2023-12-09T04:17:48.729Z,52.90
2023-12-09T04:18:57.904Z,41.60
2023-12-09T04:20:05.824Z,41.42
2023-12-09T04:21:12.582Z,43.55
2023-12-09T04:22:16.561Z,44.20
2023-12-09T04:23:22.983Z,46.58
2023-12-09T04:24:26.910Z,41.33
2023-12-09T04:25:35.380Z,44.33
2023-12-09T04:26:39.905Z,41.13
2023-12-09T04:27:53.628Z,47.78
2023-12-09T04:28:57.070Z,43.03
2023-12-09T04:30:04.703Z,41.63
2023-12-09T04:31:10.631Z,52.85
2023-12-09T04:32:17.107Z,42.83
2023-12-09T04:33:20.510Z,45.03
2023-12-09T04:34:27.048Z,43.70
2023-12-09T04:35:30.851Z,41.58
2023-12-09T04:36:40.186Z,51.08
2023-12-09T04:37:46.749Z,52.25
2023-12-09T04:38:54.421Z,46.28
2023-12-09T04:40:00.766Z,48.05
2023-12-09T04:41:08.027Z,41.10
2023-12-09T04:42:14.210Z,38.42
2023-12-09T04:43:23.340Z,46.20
2023-12-09T04:44:29.452Z,42.65
2023-12-09T04:45:38.498Z,45.20
2023-12-09T04:46:44.853Z,50.17
2023-12-09T04:47:54.849Z,48.22
2023-12-09T04:48:59.356Z,47.72
2023-12-09T04:50:10.539Z,48.03
2023-12-09T04:51:18.136Z,55.33
2023-12-09T04:52:22.025Z,51.00
2023-12-09T04:53:30.733Z,54.30
2023-12-09T04:54:34.511Z,54.90
2023-12-09T04:55:41.679Z,53.03
2023-12-09T04:56:45.574Z,53.95
2023-12-09T04:57:54.304Z,52.85
2023-12-09T04:59:02.182Z,49.75
2023-12-09T05:00:12.503Z,49.33
2023-12-09T05:01:18.744Z,50.53
2023-12-09T05:02:27.598Z,54.67
2023-12-09T05:03:34.894Z,54.33
2023-12-09T05:04:41.223Z,46.92
2023-12-09T05:05:47.752Z,49.47
2023-12-09T05:07:00.458Z,47.75
2023-12-09T05:08:07.895Z,48.25
2023-12-09T05:09:12.923Z,41.72
2023-12-09T05:10:20.823Z,45.00
2023-12-09T05:11:24.736Z,51.38
2023-12-09T05:12:31.571Z,56.85
2023-12-09T05:13:36.104Z,49.78
2023-12-09T05:14:45.158Z,49.08
2023-12-09T05:15:51.651Z,52.42
2023-12-09T05:16:58.297Z,47.53
2023-12-09T05:18:04.040Z,52.83
2023-12-09T05:19:07.826Z,52.72
2023-12-09T05:20:15.588Z,45.28
2023-12-09T05:21:18.893Z,49.72
2023-12-09T05:22:28.164Z,47.75
2023-12-09T05:23:34.760Z,54.00
2023-12-09T05:24:41.320Z,37.25
2023-12-09T05:25:45.558Z,48.25
2023-12-09T05:26:53.406Z,47.92
2023-12-09T05:27:57.300Z,43.58
2023-12-09T05:29:04.751Z,42.55
2023-12-09T05:30:14.997Z,54.28
2023-12-09T05:31:23.952Z,47.67
2023-12-09T05:32:29.986Z,43.58
2023-12-09T05:33:36.477Z,41.78
2023-12-09T05:34:43.193Z,49.72
2023-12-09T05:35:46.869Z,42.95
2023-12-09T05:36:53.371Z,46.75
2023-12-09T05:37:57.243Z,51.45
2023-12-09T05:39:03.811Z,36.20
2023-12-09T05:40:09.751Z,40.97
2023-12-09T05:41:19.649Z,46.38
2023-12-09T05:42:23.558Z,43.90
2023-12-09T05:43:33.204Z,36.17
2023-12-09T05:44:39.095Z,42.50
2023-12-09T05:45:50.358Z,38.83
2023-12-09T05:46:54.410Z,37.60
2023-12-09T05:48:01.493Z,45.03
2023-12-09T05:49:05.966Z,42.10
2023-12-09T05:50:13.853Z,47.20
2023-12-09T05:51:18.115Z,43.40
2023-12-09T05:52:25.886Z,40.83
2023-12-09T05:53:33.952Z,43.72
2023-12-09T05:54:47.771Z,41.55
2023-12-09T05:55:54.816Z,43.22
2023-12-09T05:57:11.791Z,42.65
2023-12-09T05:58:15.752Z,45.55
2023-12-09T05:59:22.284Z,45.35
2023-12-09T06:00:26.389Z,44.35
2023-12-09T06:01:35.911Z,41.45
2023-12-09T06:02:42.434Z,38.53
2023-12-09T06:03:46.329Z,19.95
2023-12-09T06:04:52.900Z,14.70
2023-12-09T06:05:59.753Z,18.67
2023-12-09T06:07:06.414Z,40.45
2023-12-09T06:08:10.394Z,40.53
2023-12-09T06:09:20.910Z,46.83
2023-12-09T06:10:24.826Z,36.17
2023-12-09T06:11:33.544Z,36.42
2023-12-09T06:12:37.701Z,43.95
2023-12-09T06:13:44.211Z,33.92
2023-12-09T06:14:51.162Z,44.95
2023-12-09T06:16:00.620Z,34.05
2023-12-09T06:17:10.080Z,44.03
2023-12-09T06:18:18.053Z,37.38
2023-12-09T06:19:22.054Z,40.13
2023-12-09T06:20:32.572Z,38.78
2023-12-09T06:21:36.500Z,37.28
2023-12-09T06:22:45.412Z,35.22
2023-12-09T06:23:49.443Z,40.10
2023-12-09T06:24:55.920Z,34.60
2023-12-09T06:25:59.739Z,42.22
2023-12-09T06:27:07.158Z,38.30
2023-12-09T06:28:13.301Z,41.17
2023-12-09T06:29:42.401Z,36.60
2023-12-09T06:30:48.801Z,36.35
2023-12-09T06:31:57.031Z,38.47
2023-12-09T06:33:03.697Z,42.42
2023-12-09T06:34:10.432Z,41.40
2023-12-09T06:35:17.364Z,36.40
2023-12-09T06:36:26.035Z,39.03
2023-12-09T06:37:29.934Z,39.17
2023-12-09T06:38:42.683Z,34.15
2023-12-09T06:39:46.642Z,43.67
2023-12-09T06:40:52.771Z,40.78
2023-12-09T06:41:56.729Z,44.17
2023-12-09T06:43:05.492Z,46.33
2023-12-09T06:44:12.490Z,41.35
2023-12-09T06:45:19.119Z,43.78
2023-12-09T06:46:23.093Z,37.58
2023-12-09T06:47:29.630Z,41.42
2023-12-09T06:48:38.852Z,41.60
2023-12-09T06:49:47.962Z,40.15
2023-12-09T06:50:54.218Z,41.22
2023-12-09T06:52:03.180Z,41.28
2023-12-09T06:53:14.576Z,41.88
2023-12-09T06:54:25.073Z,41.15
2023-12-09T06:55:29.010Z,37.78
2023-12-09T06:56:35.483Z,37.30
2023-12-09T06:57:39.433Z,40.17
2023-12-09T06:58:45.890Z,31.77
2023-12-09T06:59:49.757Z,39.00
2023-12-09T07:00:56.336Z,46.38
2023-12-09T07:02:00.280Z,39.33
2023-12-09T07:03:09.660Z,36.50
2023-12-09T07:04:16.374Z,42.17
2023-12-09T07:05:25.114Z,40.00
2023-12-09T07:06:30.780Z,38.13
2023-12-09T07:07:42.021Z,38.38
2023-12-09T07:08:46.049Z,43.97
2023-12-09T07:09:53.710Z,35.40
2023-12-09T07:11:00.767Z,38.38
2023-12-09T07:12:10.695Z,31.98
2023-12-09T07:13:16.690Z,34.38
2023-12-09T07:14:23.216Z,41.03
2023-12-09T07:15:29.399Z,33.67
2023-12-09T07:16:39.476Z,36.00
2023-12-09T07:17:43.519Z,38.78
2023-12-09T07:18:52.896Z,37.38
2023-12-09T07:20:02.684Z,37.00
2023-12-09T07:21:10.017Z,36.50
2023-12-09T07:22:13.959Z,35.15
2023-12-09T07:23:20.896Z,31.02
2023-12-09T07:24:25.639Z,41.22
2023-12-09T07:25:33.215Z,29.88
2023-12-09T07:26:37.160Z,42.08
2023-12-09T07:27:46.243Z,33.70
2023-12-09T07:28:50.465Z,33.03
2023-12-09T07:29:56.157Z,39.60
2023-12-09T07:31:04.943Z,31.13
2023-12-09T07:32:11.649Z,33.53
2023-12-09T07:33:15.655Z,33.70
2023-12-09T07:34:22.502Z,31.33
2023-12-09T07:35:32.060Z,31.70
2023-12-09T07:36:38.639Z,33.22
2023-12-09T07:37:43.341Z,26.95
2023-12-09T07:38:51.019Z,33.05
2023-12-09T07:39:55.389Z,30.92
2023-12-09T07:41:02.735Z,35.88
2023-12-09T07:42:06.686Z,28.73
2023-12-09T07:43:12.553Z,29.73
2023-12-09T07:44:16.469Z,31.67
2023-12-09T07:45:26.316Z,32.00
2023-12-09T07:46:33.812Z,29.98
2023-12-09T07:47:40.349Z,27.05
2023-12-09T07:48:46.785Z,32.00
2023-12-09T07:49:54.986Z,28.13
2023-12-09T07:51:02.315Z,26.38
2023-12-09T07:52:10.263Z,31.20
2023-12-09T07:53:16.405Z,28.02
2023-12-09T07:54:25.142Z,27.33
2023-12-09T07:55:31.676Z,28.90
2023-12-09T07:56:38.196Z,26.58
2023-12-09T07:57:45.167Z,26.00
2023-12-09T07:58:56.017Z,27.10
2023-12-09T07:59:59.859Z,28.40
2023-12-09T08:01:11.324Z,23.70
2023-12-09T08:03:24.057Z,26.35
2023-12-09T08:04:27.981Z,24.30
2023-12-09T08:05:36.094Z,26.50
2023-12-09T08:06:43.328Z,25.10
2023-12-09T08:07:49.849Z,27.08
2023-12-09T08:08:53.477Z,27.13
2023-12-09T08:09:59.798Z,22.02
2023-12-09T08:11:06.993Z,22.83
2023-12-09T08:12:13.560Z,27.20
2023-12-09T08:13:21.481Z,22.85
2023-12-09T08:14:32.056Z,23.85
2023-12-09T08:15:38.723Z,25.38
2023-12-09T08:16:45.204Z,27.92
2023-12-09T08:17:52.187Z,27.20
2023-12-09T08:18:58.750Z,27.10
2023-12-09T08:20:10.318Z,28.55
2023-12-09T08:21:17.382Z,28.35
2023-12-09T08:22:24.012Z,24.42
2023-12-09T08:23:30.989Z,25.55
2023-12-09T08:24:37.927Z,26.23
2023-12-09T08:25:46.849Z,23.80
2023-12-09T08:26:56.818Z,24.58
2023-12-09T08:28:07.136Z,24.88
2023-12-09T08:29:13.088Z,20.30
2023-12-09T08:30:19.545Z,24.55
2023-12-09T08:31:26.171Z,26.55
2023-12-09T08:32:30.466Z,24.38
2023-12-09T08:33:40.114Z,24.45
2023-12-09T08:34:51.283Z,23.70
2023-12-09T08:36:03.274Z,21.08
2023-12-09T08:37:07.187Z,21.25
2023-12-09T08:38:16.340Z,23.40
2023-12-09T08:39:20.320Z,22.23
2023-12-09T08:40:26.870Z,30.20
2023-12-09T08:41:31.022Z,24.75
2023-12-09T08:42:40.290Z,24.85
2023-12-09T08:43:44.404Z,28.63
2023-12-09T08:45:57.363Z,25.63
2023-12-09T08:47:03.898Z,26.67
2023-12-09T08:48:10.274Z,27.35
2023-12-09T08:49:16.910Z,24.50
2023-12-09T08:50:25.533Z,27.85
2023-12-09T08:51:34.796Z,21.92
2023-12-09T08:52:39.252Z,26.17
2023-12-09T08:53:48.566Z,27.55
2023-12-09T08:54:52.462Z,23.48
2023-12-09T08:55:58.945Z,26.50
2023-12-09T08:57:02.855Z,28.10
2023-12-09T08:58:09.325Z,29.42
2023-12-09T08:59:13.325Z,26.50
2023-12-09T09:00:27.417Z,28.98
2023-12-09T09:01:31.457Z,23.38
2023-12-09T09:02:42.023Z,21.95
2023-12-09T09:03:45.978Z,22.95
2023-12-09T09:04:52.518Z,26.80
2023-12-09T09:05:56.469Z,33.25
2023-12-09T09:07:05.130Z,24.52
2023-12-09T09:08:11.980Z,31.10
2023-12-09T09:09:24.180Z,30.67
2023-12-09T09:10:28.327Z,33.63
2023-12-09T09:11:34.769Z,23.35
2023-12-09T09:12:41.902Z,32.00
2023-12-09T09:13:51.049Z,30.30
2023-12-09T09:14:57.795Z,26.85
2023-12-09T09:16:07.221Z,29.63
2023-12-09T09:17:10.691Z,33.22
2023-12-09T09:18:17.563Z,36.00
2023-12-09T09:19:22.320Z,38.42
2023-12-09T09:20:31.003Z,43.10
2023-12-09T09:21:37.944Z,32.63
2023-12-09T09:22:47.093Z,26.15
2023-12-09T09:23:51.515Z,38.85
2023-12-09T09:25:00.725Z,41.75
2023-12-09T09:26:07.545Z,25.75
2023-12-09T09:27:14.025Z,24.30
2023-12-09T09:28:23.229Z,25.48
2023-12-09T09:29:32.045Z,24.30
2023-12-09T09:30:36.163Z,23.20
2023-12-09T09:31:44.760Z,21.35
2023-12-09T09:32:51.469Z,24.35
2023-12-09T09:33:58.339Z,23.23
2023-12-09T09:35:02.491Z,21.77
2023-12-09T09:36:11.027Z,23.25
2023-12-09T09:37:18.506Z,20.02
2023-12-09T09:38:27.769Z,24.50
2023-12-09T09:39:34.715Z,21.40
2023-12-09T09:40:46.357Z,22.08
2023-12-09T09:42:04.733Z,18.42
2023-12-09T09:43:23.925Z,22.08
2023-12-09T09:44:30.371Z,17.20
2023-12-09T09:45:37.591Z,19.10
2023-12-09T09:46:46.264Z,23.25
2023-12-09T09:47:54.294Z,20.75
2023-12-09T09:49:03.753Z,19.90
2023-12-09T09:50:14.283Z,21.85
2023-12-09T09:51:29.663Z,19.98
2023-12-09T09:52:40.170Z,23.15
2023-12-09T09:53:57.757Z,18.33
2023-12-09T09:55:08.706Z,18.70
2023-12-09T09:56:19.893Z,17.73
2023-12-09T09:57:31.960Z,19.13
2023-12-09T09:58:38.838Z,20.63
2023-12-09T09:59:46.140Z,25.00
2023-12-09T10:00:58.583Z,20.92
2023-12-09T10:02:08.775Z,22.27
2023-12-09T10:03:15.823Z,21.05
2023-12-09T10:04:24.953Z,21.00
2023-12-09T10:05:31.499Z,21.88
2023-12-09T10:06:39.826Z,21.63
2023-12-09T10:07:46.432Z,19.60
2023-12-09T10:08:52.939Z,18.92
2023-12-09T10:10:08.072Z,20.40
2023-12-09T10:11:11.915Z,20.58
2023-12-09T10:12:21.082Z,19.55
2023-12-09T10:13:27.365Z,19.27
2023-12-09T10:14:31.193Z,20.15
2023-12-09T10:15:39.155Z,17.48
2023-12-09T10:16:43.804Z,18.63
2023-12-09T10:17:50.446Z,23.67
2023-12-09T10:18:58.085Z,20.58
2023-12-09T10:20:07.192Z,21.88
2023-12-09T10:21:11.192Z,19.05
2023-12-09T10:22:20.593Z,18.30
2023-12-09T10:23:32.926Z,20.17
2023-12-09T10:24:49.884Z,18.80
2023-12-09T10:25:54.588Z,17.98
2023-12-09T10:27:00.164Z,20.63
2023-12-09T10:28:08.941Z,21.67
2023-12-09T10:29:18.024Z,20.25
2023-12-09T10:30:28.346Z,18.83
2023-12-09T10:31:37.761Z,20.25
2023-12-09T10:32:42.368Z,17.10
2023-12-09T10:33:49.072Z,17.73
2023-12-09T10:34:56.392Z,17.70
2023-12-09T10:36:06.010Z,19.85
2023-12-09T10:37:10.517Z,17.67
2023-12-09T10:38:20.436Z,23.27
2023-12-09T10:39:26.992Z,16.60
2023-12-09T10:40:39.860Z,17.20
2023-12-09T10:41:47.483Z,18.83
2023-12-09T10:42:54.365Z,19.73
2023-12-09T10:44:03.849Z,18.95
2023-12-09T10:45:13.583Z,16.70
2023-12-09T10:46:17.430Z,17.17
2023-12-09T10:47:23.960Z,20.95
2023-12-09T10:48:30.441Z,20.33
2023-12-09T10:49:40.609Z,21.08
2023-12-09T10:50:46.254Z,16.10
2023-12-09T10:51:52.783Z,18.10
2023-12-09T10:52:59.102Z,17.00
2023-12-09T10:54:08.235Z,17.83
2023-12-09T10:55:12.264Z,15.10
2023-12-09T10:56:22.921Z,14.45
2023-12-09T10:57:27.530Z,17.42
2023-12-09T10:58:38.576Z,13.90
2023-12-09T10:59:45.634Z,17.13
2023-12-09T11:00:54.608Z,19.95
2023-12-09T11:02:02.847Z,21.05
2023-12-09T11:03:12.885Z,15.50
2023-12-09T11:04:17.262Z,15.30
2023-12-09T11:05:27.508Z,17.90
2023-12-09T11:06:36.064Z,20.10
2023-12-09T11:07:45.597Z,17.85
2023-12-09T11:08:53.203Z,18.27
2023-12-09T11:10:02.313Z,19.42
2023-12-09T11:11:09.487Z,16.67
2023-12-09T11:12:31.042Z,19.60
2023-12-09T11:13:38.894Z,19.02
2023-12-09T11:14:50.193Z,15.57
2023-12-09T11:16:12.142Z,12.30
2023-12-09T11:17:37.695Z,18.10
2023-12-09T11:18:54.091Z,13.75
2023-12-09T11:20:01.924Z,16.58
2023-12-09T11:21:09.705Z,15.50
2023-12-09T11:22:17.570Z,16.45
2023-12-09T11:23:21.947Z,14.40
2023-12-09T11:24:34.580Z,19.33
2023-12-09T11:25:41.797Z,19.23
2023-12-09T11:26:49.604Z,15.60
2023-12-09T11:27:54.936Z,15.40
2023-12-09T11:29:00.390Z,16.00
2023-12-09T11:30:31.710Z,16.80
2023-12-09T11:31:37.965Z,18.25
2023-12-09T11:32:45.522Z,14.32
2023-12-09T11:33:52.887Z,14.60
2023-12-09T11:35:00.749Z,18.63
2023-12-09T11:36:09.512Z,15.93
2023-12-09T11:37:20.529Z,14.95
2023-12-09T11:38:26.175Z,14.00
2023-12-09T11:39:33.093Z,15.93
2023-12-09T11:40:39.524Z,16.25
2023-12-09T11:41:50.217Z,17.27
2023-12-09T11:42:55.551Z,16.27
2023-12-09T11:45:11.655Z,14.57
2023-12-09T11:46:23.156Z,16.77
2023-12-09T11:47:28.760Z,16.95
2023-12-09T11:48:36.116Z,14.63
2023-12-09T11:49:41.277Z,16.27
2023-12-09T11:50:47.844Z,19.60
2023-12-09T11:51:51.709Z,16.73
2023-12-09T11:53:00.439Z,18.02
2023-12-09T11:54:06.939Z,17.30
2023-12-09T11:55:18.616Z,13.93
2023-12-09T11:56:25.645Z,12.93
2023-12-09T11:57:35.889Z,16.45
2023-12-09T11:58:41.977Z,14.13
2023-12-09T11:59:50.955Z,14.15
2023-12-09T12:00:57.904Z,15.40
2023-12-09T12:02:04.439Z,14.07
2023-12-09T12:03:11.151Z,14.98
2023-12-09T12:04:19.982Z,15.60
2023-12-09T12:05:26.272Z,11.82
2023-12-09T12:06:34.214Z,13.65
2023-12-09T12:07:41.353Z,17.02
2023-12-09T12:08:52.857Z,18.15
2023-12-09T12:09:56.841Z,15.77
2023-12-09T12:11:03.078Z,13.50
2023-12-09T12:12:12.798Z,13.00
2023-12-09T12:13:17.370Z,14.50
2023-12-09T12:14:28.218Z,12.75
2023-12-09T12:15:32.379Z,13.40
2023-12-09T12:16:41.680Z,17.20
2023-12-09T12:17:45.884Z,15.52
2023-12-09T12:18:52.848Z,15.45
2023-12-09T12:19:59.275Z,15.25
2023-12-09T12:21:07.060Z,14.25
2023-12-09T12:22:11.153Z,12.30
2023-12-09T12:23:29.888Z,11.13
2023-12-09T12:24:42.315Z,13.50
2023-12-09T12:25:49.047Z,15.70
2023-12-09T12:26:56.972Z,13.85
2023-12-09T12:28:05.991Z,13.38
2023-12-09T12:29:18.152Z,18.25
2023-12-09T12:30:25.877Z,15.82
2023-12-09T12:31:35.236Z,12.10
2023-12-09T12:32:47.185Z,14.02
2023-12-09T12:35:00.098Z,12.70
2023-12-09T12:36:05.999Z,11.52
2023-12-09T12:37:12.621Z,10.85
2023-12-09T12:38:20.038Z,13.80
2023-12-09T12:39:29.403Z,13.43
2023-12-09T12:40:35.835Z,11.38
2023-12-09T12:41:48.897Z,10.73
2023-12-09T12:42:55.588Z,11.57
2023-12-09T12:44:02.643Z,10.73
2023-12-09T12:45:18.717Z,12.02
2023-12-09T12:46:29.801Z,12.60
2023-12-09T12:47:34.704Z,10.15
2023-12-09T12:48:46.499Z,11.73
2023-12-09T12:49:50.684Z,11.50
2023-12-09T12:50:59.723Z,11.13
2023-12-09T12:52:04.633Z,12.75
2023-12-09T12:54:14.550Z,12.55
2023-12-09T12:55:21.169Z,10.07
2023-12-09T12:56:31.315Z,13.30
2023-12-09T12:57:40.162Z,11.60
2023-12-09T12:58:46.868Z,11.00
2023-12-09T12:59:51.324Z,13.07
2023-12-09T13:01:00.131Z,13.82
2023-12-09T13:02:04.682Z,10.70
2023-12-09T13:03:11.469Z,12.52
2023-12-09T13:04:18.273Z,11.63
2023-12-09T13:05:24.958Z,13.98
2023-12-09T13:06:29.092Z,11.20
2023-12-09T13:07:35.782Z,14.75
2023-12-09T13:08:43.970Z,9.48
2023-12-09T13:09:53.006Z,12.73
2023-12-09T13:11:00.401Z,13.32
2023-12-09T13:12:13.786Z,10.07
2023-12-09T13:13:17.837Z,8.88
2023-12-09T13:14:29.748Z,12.00
2023-12-09T13:15:34.475Z,11.18
2023-12-09T13:16:41.303Z,16.73
2023-12-09T13:17:45.730Z,10.63
2023-12-09T13:18:54.159Z,13.50
2023-12-09T13:20:00.867Z,10.30
2023-12-09T13:21:10.479Z,12.13
2023-12-09T13:22:14.580Z,10.95
2023-12-09T13:23:24.274Z,12.40
2023-12-09T13:24:28.343Z,12.20
2023-12-09T13:25:36.153Z,11.07
2023-12-09T13:26:40.193Z,12.57
2023-12-09T13:27:47.218Z,10.75
2023-12-09T13:28:51.291Z,14.70
2023-12-09T13:30:01.344Z,14.10
2023-12-09T13:31:11.066Z,15.32
2023-12-09T13:32:15.120Z,13.32
2023-12-09T13:33:24.429Z,10.98
2023-12-09T13:34:28.536Z,13.98
2023-12-09T13:35:37.775Z,13.63
2023-12-09T13:36:41.277Z,12.00
2023-12-09T13:37:49.359Z,12.48
2023-12-09T13:38:55.895Z,12.23
2023-12-09T13:40:08.462Z,17.85
2023-12-09T13:41:12.507Z,15.25
2023-12-09T13:42:19.139Z,11.63
2023-12-09T13:43:23.148Z,12.93
2023-12-09T13:44:29.712Z,13.32
2023-12-09T13:45:37.417Z,13.55
2023-12-09T13:46:44.138Z,14.75
2023-12-09T13:47:53.523Z,11.60
2023-12-09T13:49:02.677Z,11.57
2023-12-09T13:50:09.032Z,13.23
2023-12-09T13:51:18.445Z,12.48
2023-12-09T13:52:31.052Z,11.63
2023-12-09T13:53:40.358Z,13.88
2023-12-09T13:54:49.883Z,12.00
2023-12-09T13:56:00.796Z,12.73
2023-12-09T13:57:05.149Z,15.00
2023-12-09T13:58:11.794Z,14.90
2023-12-09T13:59:18.837Z,16.65
2023-12-09T14:00:25.623Z,15.05
2023-12-09T14:01:35.916Z,14.25
2023-12-09T14:02:44.642Z,13.05
2023-12-09T14:03:49.746Z,10.95
2023-12-09T14:04:56.899Z,10.98
2023-12-09T14:06:01.071Z,10.73
2023-12-09T14:07:15.101Z,19.58
2023-12-09T14:08:19.158Z,16.23
2023-12-09T14:09:26.061Z,12.30
2023-12-09T14:10:35.609Z,13.32
2023-12-09T14:11:40.052Z,12.85
2023-12-09T14:12:48.966Z,15.60
2023-12-09T14:13:56.451Z,12.60
2023-12-09T14:15:08.923Z,13.27
2023-12-09T14:16:15.232Z,13.70
2023-12-09T14:17:25.007Z,16.27
2023-12-09T14:18:29.455Z,15.07
2023-12-09T14:19:36.211Z,14.65
2023-12-09T14:20:40.290Z,12.93
2023-12-09T14:21:46.991Z,12.38
2023-12-09T14:22:54.651Z,14.82
2023-12-09T14:24:01.217Z,14.23
2023-12-09T14:25:06.718Z,13.48
2023-12-09T14:26:16.517Z,11.90
2023-12-09T14:27:22.879Z,12.65
2023-12-09T14:28:29.485Z,13.32
2023-12-09T14:29:33.466Z,13.02
2023-12-09T14:30:39.992Z,12.90
2023-12-09T14:31:44.025Z,10.60
2023-12-09T14:32:53.770Z,15.13
2023-12-09T14:33:58.126Z,12.30
2023-12-09T14:35:05.077Z,13.43
2023-12-09T14:36:11.017Z,13.18
2023-12-09T14:37:17.604Z,13.32
2023-12-09T14:38:24.291Z,12.02